Latest Weather Observations for Albury

IDV60801

Issued at 10:05 pm EDT Friday 31 October 2014 (issued every 30 minutes, with the page automatically refreshed every 10 minutes)

About weather observations | Map of weather stations | Latest weather observations for VIC | Other Formats
Station Details ID: 072160 Name: ALBURY AIRPORT AWS Lat: -36.07 Lon: 146.95 Height: 163.5 m
Data from the previous 72 hours. | See also: Recent months at Albury
Date/Time
EDT
Temp
°C
App
Temp
°C
Dew
Point
Rel
Hum
%
Delta-T
°C
Wind Press
QNH
hPa
Press
MSL
hPa
Rain
since 9 am
mm
Dir
 
Spd
km/h
Gust
km/h
Spd
kts
Gust
kts
31/10:00pm 24.6 21.0 2.7 24 10.7 NNW 11 13 6 7 1002.4 1002.3 0.0
31/09:30pm 24.9 20.8 2.4 23 11.0 NNW 13 15 7 8 1002.5 1002.4 0.0
31/09:00pm 26.1 22.0 2.1 21 11.7 N 13 17 7 9 1002.5 1002.4 0.0
31/08:30pm 27.5 23.3 1.8 19 12.5 N 13 17 7 9 1002.5 1002.4 0.0
31/08:00pm 28.5 24.3 1.9 18 13.2 N 13 17 7 9 1002.5 1002.4 0.0
31/07:30pm 29.6 25.2 2.8 18 13.5 N 15 20 8 11 1002.5 1002.4 0.0
31/07:00pm 30.7 26.3 2.9 17 14.2 N 15 20 8 11 1002.6 1002.5 0.0
31/06:30pm 31.2 26.7 2.4 16 14.5 N 15 20 8 11 1003.1 1002.9 0.0
31/06:00pm 32.0 27.1 2.1 15 15.2 N 17 22 9 12 1003.3 1003.1 0.0
31/05:30pm 31.9 27.2 3.0 16 14.8 N 17 24 9 13 1003.5 1003.3 0.0
31/05:00pm 32.3 28.0 3.3 16 15.0 NW 15 22 8 12 1003.7 1003.5 0.0
31/04:30pm 32.2 26.9 3.2 16 14.9 NW 20 30 11 16 1004.1 1003.9 0.0
31/04:00pm 32.4 26.3 2.5 15 15.3 NW 24 35 13 19 1004.4 1004.2 0.0
31/03:30pm 32.6 27.0 3.5 16 15.1 NNW 22 33 12 18 1004.6 1004.4 0.0
31/03:17pm 33.0 27.3 8.5 22 13.8 WNW 28 35 15 19 1004.9 1004.7 0.0
31/03:00pm 31.9 29.5 5.4 19 14.2 NNW 7 15 4 8 1005.4 1005.2 0.0
31/02:30pm 29.9 26.3 9.9 29 11.4 S 19 22 10 12 1006.0 1005.8 0.0
31/02:00pm 29.7 26.7 10.8 31 10.9 S 17 20 9 11 1006.7 1006.5 0.0
31/01:30pm 29.0 26.3 10.2 31 10.7 SE 15 20 8 11 1007.3 1007.1 0.0
31/01:00pm 28.0 26.4 10.2 33 10.1 SSE 9 15 5 8 1008.0 1007.9 0.0
31/12:30pm 28.5 27.0 10.7 33 10.2 SE 9 15 5 8 1008.8 1008.7 0.0
31/12:00pm 26.2 24.4 9.5 35 9.3 SSE 9 17 5 9 1009.6 1009.4 0.0
31/11:30am 24.6 23.2 10.8 42 7.8 SSE 9 15 5 8 1010.1 1009.9 0.0
31/11:00am 24.4 22.9 10.7 42 7.7 ESE 9 11 5 6 1010.8 1010.6 0.0
31/10:30am 21.8 20.3 10.6 49 6.2 ESE 9 11 5 6 1011.3 1011.1 0.0
31/10:00am 20.1 18.4 9.9 52 5.5 SE 9 11 5 6 1011.9 1011.7 0.0
31/09:30am 18.8 17.6 9.6 55 4.9 E 6 9 3 5 1012.2 1012.0 0.0
31/09:00am 17.0 15.5 9.2 60 4.1 SE 7 13 4 7 1012.2 1012.0 0.0
31/08:30am 15.4 13.9 8.4 63 3.6 SE 6 7 3 4 1012.6 1012.4 0.0
31/08:00am 13.9 13.1 8.3 69 2.8 S 2 7 1 4 1012.7 1012.5 0.0
31/07:30am 12.5 12.0 7.8 73 2.3 CALM 0 0 0 0 1012.6 1012.4 0.0
31/07:00am 11.3 10.7 7.4 77 1.9 ESE 0 0 0 0 1012.5 1012.3 0.0
31/06:44am 10.4 9.7 6.9 79 1.7 CALM 0 0 0 0 1012.5 1012.3 0.0
31/06:30am 10.3 8.4 7.4 82 1.4 E 7 9 4 5 1012.3 1012.1 0.0
31/06:25am 9.5 7.4 6.8 83 1.3 NE 7 9 4 5 1012.2 1012.0 0.0
31/06:18am 9.8 8.7 7.1 83 1.3 ENE 2 7 1 4 1012.1 1011.9 0.0
31/06:00am 9.7 9.0 7.0 83 1.3 CALM 0 4 0 2 1011.9 1011.7 0.0
31/05:53am 9.7 8.6 6.8 82 1.4 ENE 2 4 1 2 1011.9 1011.7 0.0
31/05:30am 9.2 8.0 6.3 82 1.4 ENE 2 6 1 3 1011.7 1011.5 0.0
31/05:00am 10.9 9.9 7.4 79 1.7 SE 2 7 1 4 1011.5 1011.3 0.0
31/04:30am 10.5 9.0 6.8 78 1.8 S 4 6 2 3 1011.4 1011.2 0.0
31/04:00am 10.2 9.1 7.1 81 1.5 SSW 2 6 1 3 1011.4 1011.2 0.0
31/03:51am 10.1 8.2 6.6 79 1.7 S 6 6 3 3 1011.5 1011.3 0.0
31/03:33am 11.2 10.5 6.9 75 2.1 CALM 0 0 0 0 1011.5 1011.3 0.0
31/03:30am 11.2 10.5 6.9 75 2.1 CALM 0 0 0 0 1011.6 1011.4 0.0
31/03:00am 11.3 10.4 6.2 71 2.4 CALM 0 0 0 0 1011.5 1011.3 0.0
31/02:58am 11.4 10.5 6.1 70 2.5 CALM 0 0 0 0 1011.5 1011.3 0.0
31/02:30am 12.6 12.0 7.5 71 2.5 CALM 0 0 0 0 1011.8 1011.6 0.0
31/02:26am 12.2 11.5 7.1 71 2.5 CALM 0 0 0 0 1011.8 1011.6 0.0
31/02:00am 12.9 12.2 6.9 67 2.9 CALM 0 0 0 0 1012.0 1011.8 0.0
31/01:30am 13.2 12.4 6.3 63 3.3 CALM 0 0 0 0 1012.4 1012.2 0.0
31/01:00am 14.6 14.0 7.4 62 3.6 CALM 0 0 0 0 1012.5 1012.3 0.0
31/12:30am 13.8 13.1 7.1 64 3.3 CALM 0 0 0 0 1012.7 1012.5 0.0
31/12:00am 13.5 12.8 6.8 64 3.3 E 0 0 0 0 1012.7 1012.5 0.0
 
Date/Time
EDT
Temp
°C
App
Temp
°C
Dew
Point
Rel
Hum
%
Delta-T
°C
Wind Press
QNH
hPa
Press
MSL
hPa
Rain
since 9 am
mm
Dir
 
Spd
km/h
Gust
km/h
Spd
kts
Gust
kts
30/11:51pm 13.5 12.8 6.8 64 3.3 CALM 0 0 0 0 1012.7 1012.5 0.0
30/11:41pm 14.1 13.5 7.2 63 3.4 CALM 0 0 0 0 1012.7 1012.5 0.0
30/11:30pm 15.3 14.2 7.1 58 4.1 SE 2 6 1 3 1012.7 1012.5 0.0
30/11:00pm 14.9 14.1 6.7 58 4.0 CALM 0 0 0 0 1012.8 1012.7 0.0
30/10:30pm 16.1 15.5 7.3 56 4.4 CALM 0 0 0 0 1012.7 1012.5 0.0
30/10:00pm 17.3 16.2 7.1 51 5.1 SSE 2 9 1 5 1012.6 1012.4 0.0
30/09:30pm 18.3 16.4 6.5 46 5.9 NW 6 7 3 4 1012.5 1012.3 0.0
30/09:00pm 19.9 19.0 5.9 40 7.0 CALM 0 4 0 2 1012.2 1012.0 0.0
30/08:30pm 21.9 19.5 5.3 34 8.3 NNW 7 9 4 5 1012.0 1011.8 0.0
30/08:00pm 23.5 20.4 3.4 27 9.8 W 9 11 5 6 1011.8 1011.6 0.0
30/07:30pm 24.7 21.6 3.4 25 10.5 W 9 13 5 7 1011.5 1011.3 0.0
30/07:00pm 26.4 21.9 4.2 24 11.2 W 17 20 9 11 1011.2 1011.0 0.0
30/06:30pm 27.5 23.4 4.5 23 11.8 W 15 22 8 12 1011.1 1010.9 0.0
30/06:00pm 28.0 23.5 4.3 22 12.1 W 17 24 9 13 1011.0 1010.8 0.0
30/05:30pm 28.5 24.5 4.7 22 12.3 W 15 24 8 13 1011.0 1010.8 0.0
30/05:00pm 28.1 23.9 3.7 21 12.4 WSW 15 26 8 14 1011.2 1011.0 0.0
30/04:30pm 28.2 22.9 5.1 23 12.0 W 22 28 12 15 1011.3 1011.1 0.0
30/04:00pm 28.4 23.7 5.3 23 12.1 W 19 26 10 14 1011.4 1011.2 0.0
30/03:30pm 28.4 23.5 5.3 23 12.1 WNW 20 28 11 15 1011.7 1011.5 0.0
30/03:00pm 27.7 22.8 5.3 24 11.6 WSW 20 35 11 19 1012.2 1012.0 0.0
30/02:30pm 27.3 22.6 6.1 26 11.1 WSW 20 30 11 16 1012.6 1012.4 0.0
30/02:00pm 27.0 22.1 6.9 28 10.7 WSW 22 30 12 16 1013.0 1012.9 0.0
30/01:30pm 25.8 21.8 8.3 33 9.5 WSW 19 26 10 14 1013.3 1013.2 0.0
30/01:00pm 25.4 21.0 7.5 32 9.5 WSW 20 28 11 15 1013.7 1013.6 0.0
30/12:30pm 25.0 21.0 8.1 34 9.1 WSW 19 30 10 16 1014.0 1013.9 0.0
30/12:00pm 23.7 22.2 10.4 43 7.4 S 9 17 5 9 1014.5 1014.4 0.0
30/11:30am 23.2 22.0 10.3 44 7.1 ENE 7 15 4 8 1014.9 1014.8 0.0
30/11:00am 21.6 20.0 10.1 48 6.3 E 9 13 5 7 1015.5 1015.4 0.0
30/10:30am 19.9 19.0 10.6 55 5.1 SE 6 7 3 4 1015.9 1015.7 0.0
30/10:00am 18.2 17.1 10.6 61 4.1 S 7 11 4 6 1016.1 1015.9 0.0
30/09:30am 17.6 16.6 10.2 62 4.0 ESE 6 9 3 5 1016.0 1015.8 0.0
30/09:00am 16.1 15.0 10.0 67 3.2 E 6 9 3 5 1016.0 1015.8 1.8
30/08:30am 14.5 13.2 9.1 70 2.8 ENE 6 7 3 4 1016.1 1015.9 1.8
30/08:00am 12.6 11.1 8.5 76 2.1 SE 6 9 3 5 1016.1 1015.9 1.8
30/07:42am 11.4 9.6 7.9 79 1.7 SSE 7 9 4 5 1016.0 1015.8 1.8
30/07:30am 11.3 10.3 7.4 77 1.9 SSE 2 7 1 4 1015.8 1015.6 1.8
30/07:14am 11.4 11.0 8.1 80 1.6 CALM 0 0 0 0 1015.6 1015.5 1.8
30/07:00am 9.8 9.2 7.6 86 1.1 CALM 0 0 0 0 1015.5 1015.4 1.8
30/06:36am 9.3 8.7 7.6 89 0.8 CALM 0 0 0 0 1015.2 1015.1 1.8
30/06:30am 9.0 8.3 7.1 88 0.9 CALM 0 0 0 0 1015.2 1015.1 1.8
30/06:09am 9.2 8.6 7.3 88 0.9 CALM 0 0 0 0 1015.0 1014.9 1.8
30/06:00am 9.3 8.7 7.4 88 0.9 CALM 0 0 0 0 1015.0 1014.9 1.8
30/05:30am 9.3 8.6 7.1 86 1.0 CALM 0 0 0 0 1014.8 1014.7 1.8
30/05:00am 10.0 9.0 7.4 84 1.2 SE 2 6 1 3 1014.8 1014.7 1.8
30/04:30am 10.0 9.4 7.4 84 1.2 CALM 0 6 0 3 1014.8 1014.7 1.8
30/04:00am 10.6 10.2 8.2 85 1.2 CALM 0 0 0 0 1014.7 1014.6 1.8
30/03:30am 10.1 9.6 7.9 86 1.1 CALM 0 0 0 0 1014.7 1014.6 1.8
30/03:00am 9.8 8.4 7.4 85 1.2 E 4 6 2 3 1014.9 1014.8 1.8
30/02:32am 10.3 9.7 7.4 82 1.4 CALM 0 0 0 0 1015.0 1014.9 1.8
30/02:30am 10.3 9.7 7.4 82 1.4 CALM 0 0 0 0 1015.0 1014.9 1.8
30/02:14am 10.2 9.6 7.3 82 1.4 CALM 0 0 0 0 1015.0 1014.9 1.8
30/02:00am 10.2 9.5 6.9 80 1.6 CALM 0 0 0 0 1015.1 1015.0 1.8
30/01:30am 10.2 9.5 6.9 80 1.6 CALM 0 0 0 0 1015.2 1015.1 1.8
30/01:24am 10.5 9.9 7.2 80 1.6 CALM 0 0 0 0 1015.3 1015.2 1.8
30/01:05am 10.8 9.1 7.5 80 1.6 SSE 6 6 3 3 1015.3 1015.2 1.8
30/01:02am 10.7 8.9 7.2 79 1.7 SSE 6 7 3 4 1015.3 1015.2 1.8
30/01:00am 10.6 9.2 7.1 79 1.7 SSE 4 7 2 4 1015.3 1015.2 1.8
30/12:48am 11.1 10.3 6.5 73 2.2 CALM 0 0 0 0 1015.4 1015.3 1.8
30/12:45am 11.6 10.9 6.9 73 2.3 CALM 0 0 0 0 1015.4 1015.3 1.8
30/12:32am 12.3 11.7 7.4 72 2.4 CALM 0 0 0 0 1015.5 1015.4 1.8
30/12:30am 12.3 11.7 7.4 72 2.4 CALM 0 0 0 0 1015.5 1015.4 1.8
30/12:05am 12.6 12.0 7.3 70 2.6 CALM 0 0 0 0 1015.6 1015.5 1.8
30/12:00am 12.7 12.1 7.4 70 2.6 CALM 0 0 0 0 1015.8 1015.6 1.8
 
Date/Time
EDT
Temp
°C
App
Temp
°C
Dew
Point
Rel
Hum
%
Delta-T
°C
Wind Press
QNH
hPa
Press
MSL
hPa
Rain
since 9 am
mm
Dir
 
Spd
km/h
Gust
km/h
Spd
kts
Gust
kts
29/11:48pm 12.7 11.9 6.7 67 2.9 CALM 0 0 0 0 1015.8 1015.6 1.8
29/11:41pm 13.5 12.9 7.5 67 3.0 CALM 0 0 0 0 1015.9 1015.7 1.8
29/11:30pm 13.8 13.2 7.3 65 3.2 CALM 0 0 0 0 1015.9 1015.7 1.8
29/11:28pm 13.8 13.2 7.3 65 3.2 CALM 0 0 0 0 1015.9 1015.7 1.8
29/11:00pm 13.8 13.2 7.3 65 3.2 CALM 0 0 0 0 1016.0 1015.8 1.8
29/10:52pm 14.1 13.5 7.6 65 3.2 CALM 0 6 0 3 1016.1 1015.9 1.8
29/10:33pm 13.6 12.1 6.9 64 3.3 E 4 7 2 4 1016.1 1015.9 1.8
29/10:30pm 14.1 12.7 7.2 63 3.4 E 4 7 2 4 1016.1 1015.9 1.8
29/10:28pm 14.3 12.9 7.1 62 3.5 E 4 7 2 4 1016.1 1015.9 1.8
29/10:10pm 14.8 13.7 7.1 60 3.8 ENE 2 7 1 4 1016.0 1015.8 1.8
29/10:00pm 16.0 15.4 7.2 56 4.4 CALM 0 0 0 0 1015.9 1015.7 1.8
29/09:37pm 16.6 16.0 7.3 54 4.7 CALM 0 0 0 0 1015.9 1015.7 1.8
29/09:30pm 16.7 16.0 7.1 53 4.8 CALM 0 6 0 3 1015.9 1015.7 1.8
29/09:25pm 16.5 15.0 6.9 53 4.8 NNW 4 7 2 4 1015.9 1015.7 1.8
29/09:09pm 17.2 15.3 6.7 50 5.2 NNW 6 7 3 4 1015.8 1015.6 1.8
29/09:00pm 17.5 15.6 6.7 49 5.4 NW 6 7 3 4 1015.6 1015.5 1.8
29/08:52pm 18.1 16.0 6.6 47 5.8 NW 7 9 4 5 1015.6 1015.5 1.8
29/08:30pm 18.7 16.2 6.5 45 6.1 NW 9 9 5 5 1015.5 1015.4 1.8
29/08:00pm 19.2 15.8 6.0 42 6.6 WNW 13 15 7 8 1015.3 1015.2 1.8
29/07:30pm 20.5 17.1 5.7 38 7.4 NW 13 17 7 9 1015.1 1015.0 1.8
29/07:00pm 22.1 17.9 5.9 35 8.2 WNW 17 20 9 11 1014.8 1014.7 1.8
29/06:30pm 23.1 19.8 6.4 34 8.6 WNW 13 20 7 11 1014.6 1014.5 1.8
29/06:00pm 23.9 20.3 6.7 33 9.0 WNW 15 22 8 12 1014.5 1014.4 1.8
29/05:30pm 23.8 20.5 6.6 33 8.9 NW 13 19 7 10 1014.4 1014.3 1.8
29/05:00pm 23.9 20.6 6.2 32 9.1 NW 13 24 7 13 1014.5 1014.4 1.8
29/04:30pm 23.7 19.2 6.0 32 9.1 WSW 19 22 10 12 1014.8 1014.7 1.8
29/04:00pm 23.9 20.8 7.1 34 8.8 W 13 19 7 10 1015.0 1014.9 1.8
29/03:30pm 23.0 19.1 5.4 32 8.9 NW 15 22 8 12 1015.4 1015.3 1.8
29/03:00pm 22.9 19.4 5.3 32 8.9 WNW 13 22 7 12 1015.8 1015.6 1.8
29/02:30pm 22.4 19.4 5.8 34 8.4 WSW 11 22 6 12 1016.3 1016.1 1.8
29/02:00pm 21.5 18.5 6.2 37 7.8 W 11 20 6 11 1016.8 1016.6 1.8
29/01:30pm 20.5 17.8 5.7 38 7.4 WSW 9 17 5 9 1017.1 1016.9 1.8
29/01:00pm 19.8 16.8 5.8 40 7.0 WSW 11 17 6 9 1017.4 1017.2 0.0
29/12:30pm 19.3 17.3 7.1 45 6.2 SW 7 13 4 7 1017.7 1017.5 0.0
29/12:00pm 18.2 16.0 6.1 45 6.0 W 7 11 4 6 1018.2 1018.1 0.0
29/11:30am 18.0 14.5 7.4 50 5.4 WSW 15 19 8 10 1018.6 1018.5 0.0
29/11:00am 16.7 13.7 6.2 50 5.2 WNW 11 19 6 10 1018.8 1018.7 0.0
29/10:30am 16.1 12.7 5.7 50 5.0 W 13 20 7 11 1019.0 1018.9 0.0
29/10:00am 15.2 12.0 5.1 51 4.8 W 11 17 6 9 1018.9 1018.8 0.0
29/09:30am 14.3 11.7 5.9 57 4.0 W 9 13 5 7 1018.9 1018.8 0.0
29/09:00am 13.2 10.1 5.4 59 3.7 WSW 11 15 6 8 1018.9 1018.8 0.0
29/08:57am 13.2 10.2 5.9 61 3.5 W 11 17 6 9 1018.8 1018.7 0.0
29/08:46am 13.2 9.8 5.9 61 3.5 W 13 19 7 10 1018.9 1018.8 0.0
29/08:30am 12.7 9.6 5.4 61 3.4 W 11 17 6 9 1018.8 1018.7 0.0
29/08:08am 12.2 9.2 5.8 65 3.0 WNW 11 17 6 9 1018.7 1018.6 0.0
29/08:00am 12.1 9.1 6.2 67 2.8 WNW 11 15 6 8 1018.6 1018.5 0.0
29/07:33am 11.7 10.1 6.2 69 2.6 NNW 4 9 2 5 1018.2 1018.1 0.0
29/07:32am 11.7 10.2 6.6 71 2.4 N 4 9 2 5 1018.2 1018.1 0.0
29/07:30am 11.5 9.9 6.4 71 2.4 N 4 9 2 5 1018.1 1018.0 0.0
29/07:00am 10.1 6.9 6.8 80 1.6 W 13 17 7 9 1017.7 1017.5 0.0
29/06:30am 9.6 7.4 6.3 80 1.5 NW 7 9 4 5 1017.2 1017.0 0.0
29/06:26am 9.6 7.4 6.3 80 1.5 NW 7 9 4 5 1017.2 1017.0 0.0
29/06:23am 9.4 7.2 6.1 80 1.5 NNW 7 9 4 5 1017.1 1016.9 0.0
29/06:00am 8.1 7.1 5.7 85 1.1 CALM 0 6 0 3 1016.9 1016.7 0.0
29/05:55am 8.1 6.6 5.0 81 1.4 NE 2 6 1 3 1016.9 1016.7 0.0
29/05:40am 8.6 6.3 5.9 83 1.2 NE 7 9 4 5 1016.7 1016.5 0.0
29/05:30am 9.1 7.1 6.4 83 1.3 ENE 6 7 3 4 1016.5 1016.3 0.0
29/05:00am 9.3 7.3 6.4 82 1.4 NW 6 9 3 5 1016.3 1016.1 0.0
29/04:30am 9.4 7.1 5.9 79 1.6 NW 7 9 4 5 1016.1 1015.9 0.0
29/04:02am 10.0 7.6 6.9 81 1.5 NW 9 13 5 7 1015.9 1015.7 0.0
29/04:00am 10.2 7.5 7.3 82 1.4 NW 11 13 6 7 1015.9 1015.7 0.0
29/03:52am 9.7 6.7 6.2 79 1.6 WNW 11 13 6 7 1015.9 1015.7 0.0
29/03:36am 11.0 8.6 6.9 76 2.0 WNW 9 11 5 6 1015.9 1015.7 0.0
29/03:30am 11.5 9.0 6.4 71 2.4 W 9 11 5 6 1015.8 1015.6 0.0
29/03:23am 11.4 9.0 6.9 74 2.2 WNW 9 11 5 6 1015.9 1015.7 0.0
29/03:06am 11.6 9.2 6.9 73 2.3 NW 9 11 5 6 1015.9 1015.7 0.0
29/03:03am 11.6 9.2 7.1 74 2.2 WNW 9 13 5 7 1015.9 1015.7 0.0
29/03:00am 11.4 8.6 6.9 74 2.2 W 11 13 6 7 1015.9 1015.7 0.0
29/02:43am 12.2 9.9 7.5 73 2.3 W 9 13 5 7 1015.8 1015.6 0.0
29/02:30am 11.3 8.9 6.8 74 2.2 W 9 13 5 7 1015.8 1015.6 0.0
29/02:17am 11.7 8.9 6.8 72 2.4 WNW 11 15 6 8 1015.8 1015.6 0.0
29/02:00am 12.2 9.4 7.1 71 2.5 WNW 11 15 6 8 1015.6 1015.5 0.0
29/01:58am 12.5 9.8 7.2 70 2.6 WNW 11 15 6 8 1015.6 1015.5 0.0
29/01:39am 12.6 9.8 6.9 68 2.8 WNW 11 15 6 8 1015.5 1015.4 0.0
29/01:30am 12.4 9.5 6.5 67 2.8 NW 11 17 6 9 1015.6 1015.5 0.0
29/01:29am 12.5 9.6 6.5 67 2.9 NW 11 17 6 9 1015.6 1015.5 0.0
29/01:00am 12.8 9.8 6.2 64 3.2 WNW 11 13 6 7 1015.5 1015.4 0.0
29/12:30am 14.2 11.8 7.0 62 3.5 NW 9 11 5 6 1015.4 1015.3 0.0
29/12:00am 13.4 11.1 7.4 67 3.0 N 9 13 5 7 1015.4 1015.3 0.0
 
Date/Time
EDT
Temp
°C
App
Temp
°C
Dew
Point
Rel
Hum
%
Delta-T
°C
Wind Press
QNH
hPa
Press
MSL
hPa
Rain
since 9 am
mm
Dir
 
Spd
km/h
Gust
km/h
Spd
kts
Gust
kts
28/11:42pm 14.8 12.8 8.5 66 3.2 N 9 11 5 6 1015.4 1015.3 0.0
28/11:30pm 12.7 10.6 8.2 74 2.2 N 9 11 5 6 1015.4 1015.3 0.0
28/11:24pm 12.3 10.4 7.6 73 2.3 N 7 9 4 5 1015.5 1015.4 0.0
28/11:10pm 13.6 11.8 8.0 69 2.8 N 7 9 4 5 1015.5 1015.4 0.0
28/11:00pm 13.6 11.9 8.4 71 2.6 NNW 7 9 4 5 1015.4 1015.3 0.0
28/10:55pm 12.6 10.7 7.5 71 2.5 N 7 9 4 5 1015.4 1015.3 0.0
28/10:45pm 13.4 12.3 8.5 72 2.5 N 4 7 2 4 1015.3 1015.2 0.0
28/10:30pm 12.7 10.8 7.4 70 2.6 N 7 7 4 4 1015.3 1015.2 0.0
28/10:09pm 13.4 11.7 8.3 71 2.6 N 7 9 4 5 1015.3 1015.2 0.0

Other Formats:

Comma delimited format used in spreadsheet applications
http://www.bom.gov.au/fwo/IDV60801/IDV60801.95896.axf

JavaScript Object Notation format (JSON) in row-major order
http://www.bom.gov.au/fwo/IDV60801/IDV60801.95896.json